Time;durP1;ratioP1;P1;durP2;ratioP2;P2;SDS_P1;SDS_P2;PMS_P1;PMS_P2;Temp;Humidity;BMP_temperature;BMP_pressure;BME280_temperature;BME280_humidity;BME280_pressure;Samples;Min_cycle;Max_cycle;Signal;HPM_P1;HPM_P2
2022/11/11 00:01:26;;;;;;;15.88;6.15;;;;;;;6.95;100.00;102769.41;5048150;28;20144;-83
2022/11/11 00:03:55;;;;;;;16.93;7.13;;;;;;;7.07;100.00;102770.63;5046442;28;20526;-83
2022/11/11 00:06:20;;;;;;;16.75;7.00;;;;;;;7.21;100.00;102768.09;5049824;28;20100;-83
2022/11/11 00:08:47;;;;;;;11.93;6.80;;;;;;;7.32;100.00;102780.94;5049625;28;20116;-84
2022/11/11 00:11:13;;;;;;;15.73;7.27;;;;;;;7.43;100.00;102780.47;5049009;28;20399;-84
2022/11/11 00:13:40;;;;;;;12.83;6.80;;;;;;;7.53;100.00;102768.66;5049050;28;20805;-84
2022/11/11 00:16:08;;;;;;;16.90;7.35;;;;;;;7.62;100.00;102764.84;5049096;28;20025;-83
2022/11/11 00:27:16;;;;;;;16.88;7.85;;;;;;;7.84;100.00;102767.53;5048799;28;20171;-83
2022/11/11 00:29:45;;;;;;;14.18;7.28;;;;;;;7.88;100.00;102774.97;5047993;28;20082;-83
2022/11/11 00:32:22;;;;;;;17.77;8.25;;;;;;;7.87;100.00;102761.78;5047833;28;20017;-83
2022/11/11 00:37:42;;;;;;;16.67;8.13;;;;;;;7.99;100.00;102784.28;5052442;28;20044;-83
2022/11/11 00:40:09;;;;;;;17.17;7.87;;;;;;;7.98;100.00;102774.63;5052519;28;20268;-84
2022/11/11 00:42:35;;;;;;;18.23;8.27;;;;;;;8.07;100.00;102794.00;5053231;28;20104;-83
2022/11/11 00:45:00;;;;;;;15.48;9.43;;;;;;;8.00;100.00;102772.59;5052859;28;20104;-83
2022/11/11 00:53:00;;;;;;;21.17;9.30;;;;;;;8.08;100.00;102784.97;5039712;28;20144;-81
2022/11/11 00:55:26;;;;;;;18.75;8.77;;;;;;;8.08;100.00;102779.66;5052204;28;20025;-82
2022/11/11 00:57:51;;;;;;;16.37;9.20;;;;;;;8.15;100.00;102795.72;5052617;28;20491;-82
2022/11/11 01:00:16;;;;;;;19.23;9.87;;;;;;;8.20;100.00;102801.31;5052420;28;20111;-82
2022/11/11 01:02:42;;;;;;;16.37;8.83;;;;;;;8.20;100.00;102803.97;5053086;28;20052;-82
2022/11/11 01:05:08;;;;;;;18.80;9.48;;;;;;;8.23;100.00;102808.91;5049563;28;20021;-82
2022/11/11 01:07:33;;;;;;;22.17;10.37;;;;;;;8.25;100.00;102811.41;5052985;28;20078;-82
2022/11/11 01:09:58;;;;;;;22.23;9.90;;;;;;;8.27;100.00;102814.72;5050428;28;20028;-82
2022/11/11 01:12:24;;;;;;;17.27;10.27;;;;;;;8.28;100.00;102813.69;5052582;28;20044;-81
2022/11/11 01:14:49;;;;;;;14.67;9.97;;;;;;;8.30;100.00;102820.50;5051384;28;20043;-81
2022/11/11 01:17:14;;;;;;;23.97;10.70;;;;;;;8.31;100.00;102819.47;5051332;28;20082;-82
2022/11/11 01:19:39;;;;;;;16.57;9.17;;;;;;;8.32;100.00;102822.94;5051339;28;20033;-81
2022/11/11 01:22:05;;;;;;;18.87;10.63;;;;;;;8.33;100.00;102816.59;5052308;28;20060;-81
2022/11/11 01:24:30;;;;;;;19.43;10.63;;;;;;;8.32;100.00;102813.09;5051774;28;20086;-82
2022/11/11 01:26:55;;;;;;;19.97;9.93;;;;;;;8.31;100.00;102810.63;5051056;28;20510;-82
2022/11/11 01:29:21;;;;;;;22.60;10.57;;;;;;;8.33;100.00;102814.75;5053063;28;20025;-82
2022/11/11 01:31:46;;;;;;;17.08;10.43;;;;;;;8.34;100.00;102804.88;5051668;28;20033;-83
2022/11/11 01:34:11;;;;;;;17.10;9.93;;;;;;;8.39;100.00;102815.81;5052422;28;20127;-82
2022/11/11 01:36:36;;;;;;;21.63;10.17;;;;;;;8.38;100.00;102810.69;5052540;28;20032;-82
2022/11/11 01:39:02;;;;;;;15.77;9.30;;;;;;;8.36;100.00;102804.72;5051770;28;20029;-82
2022/11/11 01:41:34;;;;;;;17.92;9.43;;;;;;;8.43;100.00;102813.59;5050071;28;20052;-82
2022/11/11 01:44:11;;;;;;;16.25;10.40;;;;;;;8.46;100.00;102802.50;5050262;28;20032;-82
2022/11/11 01:46:46;;;;;;;20.30;10.53;;;;;;;8.44;100.00;102802.72;5050686;28;20476;-82
2022/11/11 01:49:26;;;;;;;18.83;10.47;;;;;;;8.45;100.00;102798.19;5049317;28;20385;-82
2022/11/11 01:52:12;;;;;;;19.77;11.15;;;;;;;8.45;100.00;102799.03;5051110;28;20184;-82
2022/11/11 01:54:56;;;;;;;22.55;10.13;;;;;;;8.45;100.00;102792.84;5051683;28;20063;-82
2022/11/11 01:57:31;;;;;;;17.95;10.20;;;;;;;8.46;100.00;102800.69;5050443;28;20036;-82
2022/11/11 02:00:04;;;;;;;16.25;10.13;;;;;;;8.46;100.00;102797.16;5050936;28;20037;-83
2022/11/11 02:02:38;;;;;;;23.40;10.55;;;;;;;8.45;100.00;102795.50;5051244;28;20480;-82
2022/11/11 02:07:49;;;;;;;21.40;10.35;;;;;;;8.43;100.00;102782.38;5052613;28;20092;-82
2022/11/11 02:10:19;;;;;;;20.43;10.77;;;;;;;8.43;100.00;102786.88;5051652;28;20116;-81
2022/11/11 02:15:29;;;;;;;22.35;11.13;;;;;;;8.44;100.00;102784.03;5049283;28;20711;-81
2022/11/11 02:17:54;;;;;;;19.20;10.20;;;;;;;8.42;100.00;102777.19;5049721;28;20025;-83
2022/11/11 02:20:26;;;;;;;25.33;10.83;;;;;;;8.45;100.00;102774.97;5048991;28;20103;-81
2022/11/11 02:23:02;;;;;;;18.13;10.00;;;;;;;8.43;100.00;102776.19;5051442;28;20045;-81
2022/11/11 02:25:31;;;;;;;20.95;10.55;;;;;;;8.40;100.00;102761.38;5048350;28;20040;-83
2022/11/11 02:28:00;;;;;;;22.33;11.77;;;;;;;8.39;100.00;102766.94;5032281;28;20021;-80
2022/11/11 02:30:25;;;;;;;21.13;10.13;;;;;;;8.37;100.00;102760.94;5030958;28;20117;-81
2022/11/11 02:32:52;;;;;;;22.30;10.37;;;;;;;8.34;100.00;102751.47;5037629;28;20374;-82
2022/11/11 02:35:39;;;;;;;22.48;10.48;;;;;;;8.32;100.00;102754.34;5050322;28;20036;-82
2022/11/11 02:38:07;;;;;;;17.50;10.02;;;;;;;8.29;100.00;102764.59;5049186;28;20041;-82
2022/11/11 02:43:26;;;;;;;20.40;11.67;;;;;;;8.32;100.00;102775.72;5030501;28;20053;-82
2022/11/11 02:45:51;;;;;;;18.92;9.95;;;;;;;8.34;100.00;102771.00;5029225;28;20029;-81
2022/11/11 02:48:16;;;;;;;19.13;10.37;;;;;;;8.35;100.00;102769.16;5044560;28;20036;-81
2022/11/11 02:50:42;;;;;;;20.60;9.77;;;;;;;8.26;100.00;102765.78;5049068;28;20025;-81
2022/11/11 02:53:07;;;;;;;18.27;10.50;;;;;;;8.29;100.00;102769.94;5050202;28;20044;-81
2022/11/11 02:55:32;;;;;;;21.92;9.88;;;;;;;8.26;100.00;102759.66;5050786;28;20033;-82
2022/11/11 02:57:59;;;;;;;19.53;9.57;;;;;;;8.20;100.00;102750.56;5048177;28;20044;-82
2022/11/11 03:00:24;;;;;;;16.65;9.77;;;;;;;8.24;100.00;102748.31;5047807;28;20091;-83
2022/11/11 03:02:49;;;;;;;19.57;10.00;;;;;;;8.23;100.00;102739.47;5050761;28;20472;-82
2022/11/11 03:05:14;;;;;;;19.10;9.80;;;;;;;8.24;100.00;102742.97;5048556;28;20025;-82
2022/11/11 03:07:40;;;;;;;17.13;9.23;;;;;;;8.22;100.00;102750.38;5050228;28;20021;-82
2022/11/11 03:10:06;;;;;;;17.93;9.30;;;;;;;8.19;100.00;102751.59;5049578;28;20415;-82
2022/11/11 03:12:31;;;;;;;18.98;9.63;;;;;;;8.22;100.00;102756.50;5049235;28;20025;-82
2022/11/11 03:14:56;;;;;;;16.53;8.90;;;;;;;8.18;100.00;102755.28;5049555;28;20029;-82
2022/11/11 03:17:40;;;;;;;17.33;8.37;;;;;;;8.14;100.00;102746.81;5047617;28;20043;-82
2022/11/11 03:23:05;;;;;;;18.10;8.40;;;;;;;8.13;100.00;102761.19;5048719;28;20114;-82
2022/11/11 03:25:38;;;;;;;16.95;8.07;;;;;;;8.11;100.00;102759.72;5050603;28;20037;-81
2022/11/11 03:28:24;;;;;;;14.48;8.38;;;;;;;8.15;100.00;102769.00;5049828;28;20017;-82
2022/11/11 03:30:50;;;;;;;17.05;8.52;;;;;;;8.17;100.00;102773.13;5048963;28;20040;-81
2022/11/11 03:33:17;;;;;;;17.70;8.73;;;;;;;8.19;100.00;102764.94;5047707;28;20025;-80
2022/11/11 03:35:43;;;;;;;15.55;8.23;;;;;;;8.19;100.00;102775.63;5049050;28;20028;-81
2022/11/11 03:38:22;;;;;;;16.30;8.27;;;;;;;8.18;100.00;102774.78;5049473;28;20025;-83
2022/11/11 03:40:49;;;;;;;21.00;10.07;;;;;;;8.21;100.00;102778.09;5049322;28;20033;-84
2022/11/11 03:43:16;;;;;;;14.07;8.20;;;;;;;8.23;100.00;102776.88;5049763;28;20029;-83
2022/11/11 03:45:43;;;;;;;20.13;8.40;;;;;;;8.09;100.00;102748.41;5050219;28;20279;-83
2022/11/11 03:48:09;;;;;;;19.17;8.95;;;;;;;8.19;100.00;102764.94;5048594;28;20021;-83
2022/11/11 03:50:34;;;;;;;15.93;8.27;;;;;;;8.17;100.00;102761.63;5045505;28;20049;-83
2022/11/11 03:53:00;;;;;;;16.83;8.57;;;;;;;8.17;100.00;102766.97;5048799;28;20041;-83
2022/11/11 03:55:26;;;;;;;18.13;8.45;;;;;;;8.15;100.00;102761.81;5047551;28;20039;-83
2022/11/11 03:57:51;;;;;;;19.23;8.43;;;;;;;8.10;100.00;102755.41;5050285;28;20049;-82
2022/11/11 04:00:20;;;;;;;18.70;8.05;;;;;;;8.02;100.00;102759.88;5049431;28;20128;-83
2022/11/11 04:11:13;;;;;;;17.53;9.27;;;;;;;7.87;100.00;102764.44;5051664;28;20457;-85
2022/11/11 04:16:25;;;;;;;17.70;8.25;;;;;;;7.79;100.00;102770.75;5050740;28;20048;-84
2022/11/11 04:21:43;;;;;;;17.60;9.30;;;;;;;7.83;100.00;102776.56;5052050;28;20103;-84
2022/11/11 04:26:56;;;;;;;20.50;9.00;;;;;;;7.83;100.00;102771.22;5051792;28;20441;-83
2022/11/11 04:29:28;;;;;;;19.45;8.45;;;;;;;7.78;100.00;102770.97;5049560;28;20029;-85
2022/11/11 04:34:40;;;;;;;17.02;9.23;;;;;;;7.83;100.00;102777.38;5053435;28;20491;-84
2022/11/11 04:37:05;;;;;;;19.23;9.45;;;;;;;7.84;100.00;102779.03;5053123;28;20464;-85
2022/11/11 04:42:15;;;;;;;16.30;8.80;;;;;;;7.86;100.00;102773.47;5052068;28;20396;-85
2022/11/11 04:47:24;;;;;;;15.50;8.38;;;;;;;7.86;100.00;102774.31;5043619;28;20042;-84
2022/11/11 04:49:51;;;;;;;17.23;8.70;;;;;;;7.80;100.00;102766.25;5052018;28;20032;-84
2022/11/11 04:52:25;;;;;;;18.15;9.40;;;;;;;7.76;100.00;102770.31;5053032;28;20108;-85
2022/11/11 04:57:39;;;;;;;14.55;8.57;;;;;;;7.80;100.00;102772.41;5055370;28;20068;-83
2022/11/11 05:00:08;;;;;;;17.95;8.52;;;;;;;7.77;100.00;102770.13;5049245;28;20488;-84
2022/11/11 05:05:18;;;;;;;15.32;8.00;;;;;;;7.77;100.00;102767.44;5055273;28;20032;-83
2022/11/11 05:10:27;;;;;;;19.33;8.10;;;;;;;7.77;100.00;102755.97;5051270;28;20389;-84
2022/11/11 05:21:19;;;;;;;15.13;7.57;;;;;;;7.77;100.00;102761.28;5044835;28;20119;-83
2022/11/11 05:21:20;;;;;;;15.65;8.02;;;;;;;7.76;100.00;102778.31;5036011;28;20040;-82
2022/11/11 05:26:30;;;;;;;13.27;8.57;;;;;;;7.75;100.00;102782.00;5052996;28;20507;-84
2022/11/11 05:28:56;;;;;;;15.07;8.25;;;;;;;7.70;100.00;102775.38;5048696;28;20100;-81
2022/11/11 05:31:24;;;;;;;15.80;8.17;;;;;;;7.70;100.00;102791.41;5052003;28;20399;-82
2022/11/11 05:33:49;;;;;;;15.35;8.60;;;;;;;7.67;100.00;102791.78;5051831;28;20476;-82
2022/11/11 05:36:14;;;;;;;15.67;9.13;;;;;;;7.64;100.00;102794.84;5052036;28;20132;-82
2022/11/11 05:38:40;;;;;;;13.50;8.87;;;;;;;7.62;100.00;102801.38;5052472;28;20052;-82
2022/11/11 05:41:07;;;;;;;17.40;9.23;;;;;;;7.55;100.00;102785.31;5048510;28;20590;-82
2022/11/11 05:43:32;;;;;;;14.68;8.95;;;;;;;7.54;100.00;102787.16;5052059;28;20029;-83
2022/11/11 05:45:57;;;;;;;20.00;9.93;;;;;;;7.51;100.00;102789.34;5049766;28;20029;-83
2022/11/11 05:48:22;;;;;;;17.03;9.77;;;;;;;7.42;100.00;102786.81;5046477;28;20029;-83
2022/11/11 05:50:48;;;;;;;18.42;8.90;;;;;;;7.37;100.00;102786.53;5051263;28;20037;-83
2022/11/11 05:53:13;;;;;;;18.80;9.80;;;;;;;7.32;100.00;102786.28;5050112;28;20025;-83
2022/11/11 05:55:41;;;;;;;18.37;9.43;;;;;;;7.25;100.00;102780.06;5051633;28;20625;-83
2022/11/11 05:58:06;;;;;;;17.67;9.65;;;;;;;7.17;100.00;102778.31;5051525;28;20056;-82
2022/11/11 06:00:32;;;;;;;20.37;9.23;;;;;;;7.07;100.00;102778.63;5051358;28;20527;-83
2022/11/11 06:03:07;;;;;;;14.40;8.97;;;;;;;6.98;100.00;102782.38;5050951;28;20032;-83
2022/11/11 06:05:32;;;;;;;18.88;9.18;;;;;;;6.80;100.00;102775.59;5049421;28;20028;-83
2022/11/11 06:07:57;;;;;;;17.70;9.20;;;;;;;6.82;100.00;102797.56;5051678;28;20365;-83
2022/11/11 06:10:32;;;;;;;18.47;9.50;;;;;;;6.76;100.00;102792.97;5050171;28;20578;-83
2022/11/11 06:13:08;;;;;;;15.18;8.90;;;;;;;6.74;100.00;102794.16;5039494;28;20036;-83
2022/11/11 06:15:35;;;;;;;15.98;8.82;;;;;;;6.72;100.00;102805.00;5051633;28;20029;-83
2022/11/11 06:18:04;;;;;;;17.77;9.75;;;;;;;6.62;100.00;102796.44;5050842;28;20079;-84
2022/11/11 06:20:30;;;;;;;17.05;9.82;;;;;;;6.55;100.00;102796.34;5047014;28;20377;-85
2022/11/11 06:22:55;;;;;;;18.93;10.07;;;;;;;6.54;100.00;102797.38;5051237;28;20104;-84
2022/11/11 06:28:10;;;;;;;15.65;9.02;;;;;;;6.49;100.00;102805.91;5050249;28;20558;-85
2022/11/11 06:30:36;;;;;;;18.92;9.52;;;;;;;6.40;100.00;102799.00;5049425;28;20047;-84
2022/11/11 06:33:06;;;;;;;21.02;10.10;;;;;;;6.35;100.00;102796.88;5050972;28;20033;-84
2022/11/11 06:39:23;;;;;;;;;;;;;;;;;;;;;
2022/11/11 06:41:59;;;;;;;;;;;;;;;;;;;;;
2022/11/11 06:45:32;;;;;;;;;;;;;;;;;;;;;
2022/11/11 06:48:14;;;;;;;;;;;;;;;;;;;;;
2022/11/11 06:50:39;;;;;;;20.87;9.33;;;;;;;5.96;100.00;102797.84;5031477;28;20399;-85
2022/11/11 06:53:14;;;;;;;18.30;10.60;;;;;;;6.13;100.00;102833.19;5049444;28;20280;-84
2022/11/11 06:56:13;;;;;;;23.13;10.65;;;;;;;5.76;100.00;102777.03;5047386;28;20029;-84
2022/11/11 06:58:39;;;;;;;21.90;11.00;;;;;;;5.76;100.00;102782.34;5022525;28;20245;-85
2022/11/11 07:01:11;;;;;;;23.40;11.93;;;;;;;5.87;100.00;102798.91;5048772;28;20476;-86
2022/11/11 07:03:48;;;;;;;21.20;10.80;;;;;;;6.04;100.00;102821.78;5049864;28;20275;-84
2022/11/11 07:06:25;;;;;;;;;;;;;;;;;;;;;
2022/11/11 07:08:53;;;;;;;23.75;11.80;;;;;;;5.73;100.00;102761.44;5034638;28;20504;-85
2022/11/11 07:11:51;;;;;;;;;;;;;;;;;;;;;
2022/11/11 07:14:43;;;;;;;28.17;13.82;;;;;;;6.04;100.00;102820.94;5047463;28;20055;-82
2022/11/11 07:17:09;;;;;;;26.00;12.40;;;;;;;6.05;100.00;102823.44;5046245;28;20025;-85
2022/11/11 07:19:35;;;;;;;27.05;12.68;;;;;;;6.03;100.00;102825.44;5049838;28;20025;-84
2022/11/11 07:22:00;;;;;;;34.03;13.30;;;;;;;6.04;100.00;102828.91;5049155;28;20035;-84
2022/11/11 07:24:25;;;;;;;29.80;13.20;;;;;;;6.06;100.00;102840.22;5050410;28;20115;-84
2022/11/11 07:26:52;;;;;;;28.60;13.23;;;;;;;6.07;100.00;102841.88;5048675;28;20116;-85
2022/11/11 07:29:18;;;;;;;25.95;12.45;;;;;;;6.11;100.00;102837.84;5045646;28;20041;-84
2022/11/11 07:31:44;;;;;;;25.65;12.18;;;;;;;6.10;100.00;102828.22;5046486;28;20476;-84
2022/11/11 07:34:09;;;;;;;26.70;13.57;;;;;;;6.10;100.00;102825.53;5047108;28;20107;-86
2022/11/11 07:36:34;;;;;;;28.30;12.83;;;;;;;6.20;100.00;102842.13;5049194;28;20639;-87
2022/11/11 07:44:29;;;;;;;;;;;;;;;;;;;;;
2022/11/11 07:47:21;;;;;;;27.58;12.70;;;;;;;6.01;100.00;102810.66;5018795;28;20446;-85
2022/11/11 07:53:30;;;;;;;;;;;;;;;;;;;;;
2022/11/11 07:55:38;;;;;;;25.63;13.52;;;;;;;6.25;100.00;102870.03;5036023;28;20048;-86
2022/11/11 07:58:14;;;;;;;28.33;12.90;;;;;;;5.93;100.00;102824.81;5050769;28;20033;-88
2022/11/11 08:00:59;;;;;;;;;;;;;;;;;;;;;
2022/11/11 08:03:38;;;;;;;;;;;;;;;;;;;;;
2022/11/11 08:17:00;;;;;;;;;;;;;;;;;;;;;
2022/11/11 08:23:13;;;;;;;;;;;;;;;;;;;;;
2022/11/11 08:25:39;;;;;;;22.73;11.65;;;;;;;6.35;100.00;102875.94;5019433;28;20036;-86
2022/11/11 08:28:16;;;;;;;21.88;10.85;;;;;;;6.39;100.00;102876.41;5029930;28;20021;-85
2022/11/11 08:34:56;;;;;;;21.30;10.45;;;;;;;6.67;100.00;102924.63;5154741;22;20045;-86
2022/11/11 08:41:08;;;;;;;20.80;9.63;;;;;;;6.63;100.00;102915.31;4929917;29;20126;-85
2022/11/11 08:43:52;;;;;;;17.40;9.00;;;;;;;6.49;100.00;102876.97;5063156;22;20078;-87
2022/11/11 08:47:02;;;;;;;16.70;8.63;;;;;;;6.82;100.00;102938.78;5055244;28;20029;-85
2022/11/11 08:49:34;;;;;;;18.17;8.43;;;;;;;6.59;100.00;102896.22;5049096;28;20036;-84
2022/11/11 08:55:05;;;;;;;18.17;8.80;;;;;;;6.91;100.00;102928.06;5029288;28;20029;-85
2022/11/11 08:57:33;;;;;;;18.50;8.90;;;;;;;6.92;100.00;102927.06;5053216;28;20036;-85
2022/11/11 08:59:59;;;;;;;14.80;8.27;;;;;;;7.03;100.00;102934.59;5053666;28;20090;-85
2022/11/11 09:02:24;;;;;;;17.07;7.67;;;;;;;7.04;100.00;102936.25;5054227;28;20025;-85
2022/11/11 09:04:49;;;;;;;14.77;7.73;;;;;;;7.05;100.00;102937.09;5052749;28;20456;-86
2022/11/11 09:07:14;;;;;;;15.47;6.90;;;;;;;6.99;100.00;102925.31;5057651;28;20099;-86
2022/11/11 09:09:40;;;;;;;13.98;6.95;;;;;;;7.05;100.00;102926.41;5059134;28;20025;-86
2022/11/11 09:14:40;;;;;;;12.48;6.40;;;;;;;7.03;100.00;102915.13;3372807;26;20076;-87
2022/11/11 09:21:30;;;;;;;;;;;;;;;;;;;;;
2022/11/11 09:24:06;;;;;;;;;;;;;;;;;;;;;
2022/11/11 09:30:18;;;;;;;;;;;;;;;;;;;;;
2022/11/11 09:33:21;;;;;;;;;;;;;;;;;;;;;
2022/11/11 09:36:21;;;;;;;;;;;;;;;;;;;;;
2022/11/11 09:40:02;;;;;;;;;;;;;;;;;;;;;
2022/11/11 09:45:48;;;;;;;10.55;6.00;;;;;;;7.68;100.00;102956.22;5009040;28;20053;-88
2022/11/11 09:48:44;;;;;;;10.13;5.53;;;;;;;7.67;100.00;102949.22;5027962;28;20175;-87
2022/11/11 09:51:22;;;;;;;12.23;5.70;;;;;;;7.76;100.00;102965.16;5032353;28;20064;-86
2022/11/11 09:53:59;;;;;;;12.77;6.00;;;;;;;7.78;100.00;102961.25;5032986;28;20029;-86
2022/11/11 09:56:26;;;;;;;9.40;5.72;;;;;;;7.87;100.00;102964.66;5032346;28;20017;-86
2022/11/11 09:59:02;;;;;;;10.60;5.20;;;;;;;7.87;100.00;102951.31;5031298;28;20067;-87
2022/11/11 10:01:35;;;;;;;7.53;4.97;;;;;;;8.01;100.00;102961.16;5030957;28;20292;-88
2022/11/11 10:04:21;;;;;;;8.90;5.20;;;;;;;8.09;100.00;102962.03;5031692;28;20034;-89
2022/11/11 10:06:49;;;;;;;7.00;5.15;;;;;;;8.14;100.00;102959.63;5032742;28;20034;-87
2022/11/11 10:09:26;;;;;;;7.65;5.22;;;;;;;8.23;100.00;102958.47;5031215;28;20112;-88
2022/11/11 10:12:10;;;;;;;9.55;5.18;;;;;;;8.30;100.00;102970.06;5014745;28;20041;-88
2022/11/11 10:14:39;;;;;;;12.48;4.60;;;;;;;8.39;100.00;102972.63;5033501;28;20036;-87
2022/11/11 10:17:26;;;;;;;11.27;4.82;;;;;;;8.47;100.00;102970.66;5034643;28;20056;-86
2022/11/11 10:20:20;;;;;;;8.63;4.80;;;;;;;8.57;100.00;102967.72;5016350;28;20040;-87
2022/11/11 10:22:50;;;;;;;10.38;4.85;;;;;;;8.67;100.00;102961.19;5033122;28;20066;-86
2022/11/11 10:25:35;;;;;;;7.10;4.37;;;;;;;8.80;100.00;102974.66;5011606;28;20065;-85
2022/11/11 10:28:02;;;;;;;6.23;4.07;;;;;;;8.88;100.00;102966.53;5039311;28;20284;-85
2022/11/11 10:30:30;;;;;;;6.20;3.83;;;;;;;8.99;100.00;102972.34;5022472;28;20040;-85
2022/11/11 10:33:01;;;;;;;7.30;3.95;;;;;;;9.04;100.00;102962.72;5061927;28;20029;-85
2022/11/11 10:35:32;;;;;;;12.10;4.30;;;;;;;9.19;100.00;102967.97;5056452;28;20055;-85
2022/11/11 10:38:10;;;;;;;6.95;4.78;;;;;;;9.35;100.00;102977.53;5041750;28;20431;-86
2022/11/11 10:40:47;;;;;;;8.02;3.88;;;;;;;9.47;100.00;102971.63;5031154;28;20105;-84
2022/11/11 10:43:26;;;;;;;4.95;3.30;;;;;;;9.52;100.00;102977.22;5032381;28;20034;-86
2022/11/11 10:45:57;;;;;;;6.75;3.55;;;;;;;9.60;100.00;102974.34;5016674;28;20109;-85
2022/11/11 10:48:34;;;;;;;4.63;3.20;;;;;;;9.73;100.00;102973.59;5044273;28;20032;-87
2022/11/11 10:51:01;;;;;;;6.47;3.37;;;;;;;9.87;100.00;102989.72;5039975;28;20037;-87
2022/11/11 10:53:39;;;;;;;4.07;3.00;;;;;;;9.97;100.00;102979.47;5029802;28;20276;-87
2022/11/11 10:56:37;;;;;;;7.68;3.22;;;;;;;10.08;100.00;102983.41;5014931;28;20476;-89
2022/11/11 10:59:21;;;;;;;8.13;3.28;;;;;;;10.20;100.00;102983.66;5011055;28;20413;-88
2022/11/11 11:02:21;;;;;;;4.22;2.60;;;;;;;10.34;100.00;102976.47;5017526;28;20512;-88
2022/11/11 11:04:57;;;;;;;4.05;2.40;;;;;;;10.44;99.57;102972.38;5008703;28;20056;-87
2022/11/11 11:07:38;;;;;;;7.15;2.80;;;;;;;10.59;98.59;102976.75;5010581;28;20052;-88
2022/11/11 11:10:14;;;;;;;4.07;2.70;;;;;;;10.65;96.48;102975.09;5025170;28;20029;-88
2022/11/11 11:41:50;;;;;;;4.57;2.20;;;;;;;11.39;91.15;102942.81;5330543;22;20343;-84
2022/11/11 11:44:29;;;;;;;6.95;1.92;;;;;;;11.46;89.46;102949.00;5029095;28;20025;-85
2022/11/11 11:47:19;;;;;;;3.25;1.80;;;;;;;11.51;89.92;102949.16;5027484;28;20032;-85
2022/11/11 11:50:06;;;;;;;3.70;1.40;;;;;;;11.55;90.55;102953.06;5029940;28;20547;-85
2022/11/11 11:52:58;;;;;;;3.50;1.50;;;;;;;11.65;91.44;102952.63;5032507;28;20025;-88
2022/11/11 11:56:03;;;;;;;2.88;1.70;;;;;;;11.70;89.45;102949.28;5038878;28;20028;-89
2022/11/11 13:16:06;;;;;;;;;;;;;;;;;;;;;
2022/11/11 13:19:07;;;;;;;;;;;;;;;;;;;;;
2022/11/11 13:22:24;;;;;;;;;;;;;;;;;;;;;
2022/11/11 13:25:33;;;;;;;3.65;1.38;;;;;;;12.34;85.53;102885.69;5035776;28;20075;-92
2022/11/11 13:29:13;;;;;;;;;;;;;;;;;;;;;
2022/11/11 13:32:50;;;;;;;;;;;;;;;;;;;;;
2022/11/11 15:02:56;;;;;;;;;;;;;;;;;;;;;
2022/11/11 15:06:50;;;;;;;;;;;;;;;;;;;;;
2022/11/11 15:13:03;;;;;;;;;;;;;;;;;;;;;
2022/11/11 15:16:33;;;;;;;;;;;;;;;;;;;;;
2022/11/11 15:19:01;;;;;;;5.38;1.92;;;;;;;10.37;95.66;102890.31;5054192;28;20064;-91
2022/11/11 15:22:20;;;;;;;;;;;;;;;;;;;;;
2022/11/11 15:25:32;;;;;;;;;;;;;;;;;;;;;
2022/11/11 15:28:18;;;;;;;4.93;2.15;;;;;;;9.92;99.00;102898.91;5068103;28;20053;-87
2022/11/11 15:31:02;;;;;;;6.55;1.77;;;;;;;9.80;98.84;102901.34;5066610;28;20057;-88
2022/11/11 15:34:02;;;;;;;4.33;1.60;;;;;;;9.63;99.59;102898.22;5060181;28;20056;-88
2022/11/11 15:36:33;;;;;;;3.70;1.60;;;;;;;9.51;100.00;102901.44;5047763;28;20347;-89
2022/11/11 15:39:04;;;;;;;3.17;1.67;;;;;;;9.33;100.00;102893.13;5067730;28;20025;-88
2022/11/11 15:41:39;;;;;;;6.55;2.25;;;;;;;9.27;100.00;102893.94;5067128;28;20017;-87
2022/11/11 15:44:17;;;;;;;5.88;2.10;;;;;;;9.11;100.00;102876.34;5066377;28;20097;-87
2022/11/11 15:46:45;;;;;;;6.50;1.92;;;;;;;9.12;100.00;102886.88;5063586;28;20025;-87
2022/11/11 15:49:39;;;;;;;6.40;2.30;;;;;;;9.06;100.00;102887.66;5060487;28;20021;-86
2022/11/11 15:52:35;;;;;;;9.23;2.30;;;;;;;8.92;100.00;102890.25;5056675;28;20048;-87
2022/11/11 15:55:19;;;;;;;3.60;2.13;;;;;;;8.87;100.00;102898.03;5057486;28;20347;-87
2022/11/11 15:58:07;;;;;;;7.22;2.30;;;;;;;8.61;100.00;102863.91;5059703;28;20041;-87
2022/11/11 16:03:45;;;;;;;;;;;;;;;;;;;;;
2022/11/11 16:07:28;;;;;;;;;;;;;;;;;;;;;
2022/11/11 16:18:15;;;;;;;;;;;;;;;;;;;;;
2022/11/11 16:33:00;;;;;;;;;;;;;;;;;;;;;
2022/11/11 16:38:32;;;;;;;8.60;3.88;;;;;;;7.81;100.00;102920.03;4995492;28;20039;-89
2022/11/11 16:41:00;;;;;;;8.13;4.35;;;;;;;7.64;100.00;102911.41;5037569;28;20094;-89
2022/11/11 16:44:18;;;;;;;;;;;;;;;;;;;;;
2022/11/11 16:53:10;;;;;;;;;;;;;;;;;;;;;
2022/11/11 16:56:26;;;;;;;;;;;;;;;;;;;;;
2022/11/11 16:59:11;;;;;;;;;;;;;;;;;;;;;
2022/11/11 17:01:47;;;;;;;6.25;2.97;;;;;;;7.12;100.00;102906.03;4999938;28;20033;-89
2022/11/11 17:16:18;;;;;;;;;;;;;;;;;;;;;
2022/11/11 17:19:24;;;;;;;;;;;;;;;;;;;;;
2022/11/11 17:24:57;;;;;;;;;;;;;;;;;;;;;
2022/11/11 17:27:22;;;;;;;12.48;4.57;;;;;;;6.34;100.00;102895.59;5066150;28;20036;-88
2022/11/11 17:29:48;;;;;;;10.00;4.80;;;;;;;6.42;100.00;102913.34;5070683;28;20116;-88
2022/11/11 17:32:13;;;;;;;8.07;4.37;;;;;;;6.37;100.00;102900.56;5071631;28;20038;-87
2022/11/11 17:34:38;;;;;;;6.90;4.30;;;;;;;6.39;100.00;102911.03;5068896;28;20025;-85
2022/11/11 17:37:04;;;;;;;7.87;4.50;;;;;;;6.35;100.00;102921.22;5076892;28;20471;-84
2022/11/11 17:39:29;;;;;;;8.53;4.17;;;;;;;6.29;100.00;102906.78;5073457;28;20051;-86
2022/11/11 17:41:55;;;;;;;8.73;4.28;;;;;;;6.21;100.00;102912.16;5066892;28;20032;-86
2022/11/11 17:44:20;;;;;;;6.80;3.60;;;;;;;6.15;100.00;102907.53;5069978;28;20036;-86
2022/11/11 17:46:45;;;;;;;10.53;4.10;;;;;;;6.15;100.00;102916.34;5050504;28;20086;-88
2022/11/11 17:49:11;;;;;;;9.47;4.50;;;;;;;6.14;100.00;102922.69;5071830;28;20020;-87
2022/11/11 17:51:36;;;;;;;9.80;4.13;;;;;;;6.07;100.00;102919.06;5053753;28;20029;-89
2022/11/11 17:54:06;;;;;;;9.48;4.40;;;;;;;6.02;100.00;102913.47;5073541;28;20036;-89
2022/11/11 17:56:33;;;;;;;9.63;5.20;;;;;;;6.05;100.00;102919.25;5076137;28;20027;-90
2022/11/11 17:58:59;;;;;;;7.17;4.27;;;;;;;6.05;100.00;102915.75;5055164;28;20782;-89
2022/11/11 18:01:24;;;;;;;9.70;4.68;;;;;;;5.96;100.00;102906.13;5052988;28;20115;-89
2022/11/11 18:03:54;;;;;;;7.60;4.47;;;;;;;5.95;100.00;102917.78;5073432;28;20446;-88
2022/11/11 18:06:22;;;;;;;11.90;4.75;;;;;;;5.85;100.00;102915.34;5071870;28;20032;-89
2022/11/11 18:08:47;;;;;;;11.30;5.37;;;;;;;5.73;100.00;102905.09;5071885;28;20035;-88
2022/11/11 18:11:12;;;;;;;9.07;4.60;;;;;;;5.75;100.00;102918.22;5069943;28;20298;-88
2022/11/11 18:13:40;;;;;;;10.03;5.20;;;;;;;5.59;100.00;102903.16;5070796;28;20052;-89
2022/11/11 18:16:13;;;;;;;10.20;5.68;;;;;;;5.61;100.00;102915.28;5069645;28;20024;-89
2022/11/11 18:18:40;;;;;;;15.32;5.78;;;;;;;5.63;100.00;102916.94;5070605;28;20127;-89
2022/11/11 18:21:06;;;;;;;12.90;6.73;;;;;;;5.60;100.00;102920.75;5068856;28;20042;-89
2022/11/11 18:23:37;;;;;;;18.10;8.47;;;;;;;5.59;100.00;102917.28;5071487;28;20366;-88
2022/11/11 18:26:14;;;;;;;16.92;8.00;;;;;;;5.54;100.00;102916.97;5071429;28;20055;-88
2022/11/11 18:28:42;;;;;;;21.45;9.68;;;;;;;5.57;100.00;102921.09;5068800;28;20090;-88
2022/11/11 18:31:10;;;;;;;28.30;12.23;;;;;;;5.49;100.00;102921.97;5068727;28;20031;-87
2022/11/11 18:33:36;;;;;;;36.55;14.85;;;;;;;5.49;100.00;102921.97;5071450;28;20029;-87
2022/11/11 18:36:08;;;;;;;37.30;15.57;;;;;;;5.44;100.00;102924.34;5070595;28;20373;-86
2022/11/11 18:38:35;;;;;;;48.63;19.20;;;;;;;5.42;100.00;102929.81;5068674;28;20028;-86
2022/11/11 18:41:07;;;;;;;45.13;18.60;;;;;;;5.37;100.00;102920.69;5069416;28;20113;-86
2022/11/11 18:43:46;;;;;;;45.97;18.43;;;;;;;5.29;100.00;102914.41;5066733;28;20972;-86
2022/11/11 18:46:19;;;;;;;44.50;18.23;;;;;;;5.26;100.00;102912.09;5068427;28;20107;-86
2022/11/11 18:48:53;;;;;;;44.40;18.02;;;;;;;5.22;100.00;102917.91;5075384;28;20103;-85
2022/11/11 18:51:19;;;;;;;39.70;16.83;;;;;;;5.19;100.00;102916.41;5070602;28;20406;-86
2022/11/11 18:53:44;;;;;;;31.05;14.93;;;;;;;5.15;100.00;102915.09;5052033;28;20045;-86